Latest Coastal Weather Observations for Alva Beach

IDQ60701

Issued at 10:22 pm EST Thursday 28 May 2015 (issued every 10 minutes, with the page automatically refreshed every 10 minutes)

About coastal observations | Map of coastal stations | Coastal observations for QLD | Marine services | Other Formats
Station Details ID: 033295 Name: ALVA BEACH Lat: -19.46 Lon: 147.48 Height: 7.5 m
Data from the previous 72 hours. | See also: Recent months at Alva Beach
Date/Time
EST
Temp

°C
Wind Pressure Rain
since 9am
mm
Weather Cloud Vis
km
Sea
Height
m
Swell
Dir
 
Speed
knots
Gust
knots
hPa Trend Height
m
Period
s
Dir
28/10:00pm 23.8 ESE 13 18 1020.2 - 0.0 - - - - - - -
28/09:30pm 23.6 ESE 10 17 1020.3 - 0.0 - - - - - - -
28/09:00pm 24.0 ESE 11 17 1020.0 - 0.0 - - - - - - -
28/08:30pm 24.0 E 13 19 1019.9 - 0.0 - - - - - - -
28/08:00pm 24.0 E 12 16 1019.7 - 0.0 - - - - - - -
28/07:30pm 23.9 ESE 8 13 1019.3 - 0.0 - - - - - - -
28/07:00pm 23.6 ESE 8 12 1019.0 - 0.0 - - - - - - -
28/06:30pm 23.4 ESE 10 16 1018.8 - 0.0 - - - - - - -
28/06:00pm 23.2 ESE 10 16 1018.6 - 0.0 - - - - - - -
28/05:30pm 23.6 ESE 11 15 1018.2 - 0.0 - - - - - - -
28/05:00pm 23.9 ESE 10 16 1018.1 - 0.0 - - - - - - -
28/04:30pm 24.7 ESE 12 17 1017.9 - 0.0 - - - - - - -
28/04:00pm 24.9 ESE 13 17 1017.8 - 0.0 - - - - - - -
28/03:30pm 25.4 ESE 10 16 1017.7 - 0.0 - - - - - - -
28/03:00pm 26.5 ESE 9 15 1017.8 - 0.0 - - - - - - -
28/02:30pm 26.3 ESE 11 15 1017.8 - 0.0 - - - - - - -
28/02:00pm 26.8 ESE 9 13 1017.9 - 0.0 - - - - - - -
28/01:30pm 27.1 ESE 9 13 1018.0 - 0.0 - - - - - - -
28/01:00pm 26.1 ESE 10 16 1018.3 - 0.0 - - - - - - -
28/12:30pm 26.9 ESE 10 16 1018.7 - 0.0 - - - - - - -
28/12:00pm 25.4 ESE 11 17 1019.1 - 0.0 - - - - - - -
28/11:30am 26.2 ESE 9 14 1019.4 - 0.0 - - - - - - -
28/11:00am 26.2 ESE 10 16 1019.6 - 0.0 - - - - - - -
28/10:30am 25.7 ESE 9 15 1020.0 - 0.0 - - - - - - -
28/10:00am 25.2 ESE 9 15 1020.3 - 0.0 - - - - - - -
28/09:30am 24.5 ESE 10 15 1020.5 - 0.0 - - - - - - -
28/09:00am 23.9 ESE 10 16 1020.4 - 0.2 - - - - - - -
28/08:30am 21.5 S 3 6 1020.1 - 0.2 - - - - - - -
28/08:00am 19.0 SW 3 4 1019.9 - 0.2 - - - - - - -
28/07:30am 17.8 SSW 4 5 1019.7 - 0.2 - - - - - - -
28/07:00am 16.9 SW 3 5 1019.6 - 0.2 - - - - - - -
28/06:30am 17.0 SW 4 5 1019.2 - 0.2 - - - - - - -
28/06:00am 17.5 CALM 0 3 1018.8 - 0.2 - - - - - - -
28/05:30am 18.0 SSW 5 6 1018.4 - 0.2 - - - - - - -
28/05:00am 18.5 SSW 4 8 1018.1 - 0.2 - - - - - - -
28/04:30am 19.1 S 5 8 1018.1 - 0.2 - - - - - - -
28/04:00am 21.7 SSE 6 11 1018.2 - 0.2 - - - - - - -
28/03:30am 22.0 SE 8 15 1018.2 - 0.2 - - - - - - -
28/03:00am 22.1 SE 12 18 1018.2 - 0.2 - - - - - - -
28/02:30am 22.0 SE 11 18 1018.2 - 0.2 - - - - - - -
28/02:00am 22.0 SE 11 17 1018.3 - 0.2 - - - - - - -
28/01:30am 22.3 SE 11 16 1018.5 - 0.2 - - - - - - -
28/01:00am 22.4 SE 10 17 1018.4 - 0.2 - - - - - - -
28/12:30am 22.6 ESE 11 18 1018.4 - 0.2 - - - - - - -
28/12:00am 22.9 ESE 11 19 1018.5 - 0.2 - - - - - - -
 
Date/Time
EST
Temp

°C
Wind Pressure Rain
since 9am
mm
Weather Cloud Vis
km
Sea
Height
m
Swell
Dir
 
Speed
knots
Gust
knots
hPa Trend Height
m
Period
s
Dir
27/11:30pm 23.0 ESE 15 19 1018.6 - 0.2 - - - - - - -
27/11:00pm 23.1 ESE 14 19 1018.9 - 0.2 - - - - - - -
27/10:30pm 22.9 ESE 13 19 1019.1 - 0.2 - - - - - - -
27/10:00pm 23.1 ESE 15 20 1019.2 - 0.2 - - - - - - -
27/09:30pm 23.1 ESE 13 17 1019.3 - 0.2 - - - - - - -
27/09:00pm 23.2 E 15 20 1019.2 - 0.2 - - - - - - -
27/08:30pm 23.3 ESE 14 21 1019.2 - 0.2 - - - - - - -
27/08:00pm 23.5 E 15 21 1019.0 - 0.2 - - - - - - -
27/07:30pm 23.5 E 15 21 1018.7 - 0.2 - - - - - - -
27/07:00pm 23.5 E 15 20 1018.4 - 0.2 - - - - - - -
27/06:30pm 23.7 E 14 23 1017.9 - 0.2 - - - - - - -
27/06:00pm 23.7 E 15 21 1017.6 - 0.2 - - - - - - -
27/05:30pm 23.8 E 15 21 1017.4 - 0.2 - - - - - - -
27/05:00pm 24.1 E 16 23 1017.2 - 0.2 - - - - - - -
27/04:30pm 24.4 E 17 21 1017.0 - 0.2 - - - - - - -
27/04:00pm 24.7 E 16 21 1017.1 - 0.2 - - - - - - -
27/03:30pm 25.0 E 14 19 1017.1 - 0.2 - - - - - - -
27/03:00pm 25.1 E 13 17 1017.3 - 0.2 - - - - - - -
27/02:30pm 25.9 E 12 16 1017.5 - 0.2 - - - - - - -
27/02:00pm 26.5 ESE 10 15 1017.7 - 0.2 - - - - - - -
27/01:30pm 26.9 ESE 9 14 1017.7 - 0.2 - - - - - - -
27/01:00pm 26.4 ESE 9 17 1018.1 - 0.2 - - - - - - -
27/12:30pm 26.5 ESE 9 15 1018.7 - 0.2 - - - - - - -
27/12:00pm 26.5 ESE 9 15 1019.1 - 0.2 - - - - - - -
27/11:30am 26.1 ESE 10 18 1019.7 - 0.2 - - - - - - -
27/11:00am 25.7 ESE 10 19 1020.1 - 0.2 - - - - - - -
27/10:30am 24.8 SE 10 17 1020.4 - 0.2 - - - - - - -
27/10:00am 24.3 SE 8 14 1020.8 - 0.0 - - - - - - -
27/09:30am 23.8 SE 7 13 1020.5 - 0.0 - - - - - - -
27/09:00am 22.5 SSE 5 10 1020.5 - 0.0 - - - - - - -
27/08:30am 21.2 SSE 5 7 1020.5 - 0.0 - - - - - - -
27/08:00am 20.0 S 4 6 1020.2 - 0.0 - - - - - - -
27/07:30am 19.4 SSW 4 6 1019.9 - 0.0 - - - - - - -
27/07:00am 19.3 SSW 3 5 1019.8 - 0.0 - - - - - - -
27/06:30am 19.7 SSW 3 5 1019.7 - 0.0 - - - - - - -
27/06:00am 20.2 S 3 5 1019.2 - 0.0 - - - - - - -
27/05:30am 19.8 S 4 7 1019.0 - 0.0 - - - - - - -
27/05:00am 19.8 S 4 7 1018.8 - 0.0 - - - - - - -
27/04:30am 20.1 SSE 5 9 1018.6 - 0.0 - - - - - - -
27/04:00am 20.4 SSE 5 10 1018.7 - 0.0 - - - - - - -
27/03:30am 20.6 SSE 5 8 1018.9 - 0.0 - - - - - - -
27/03:00am 21.1 SSE 5 8 1019.0 - 0.0 - - - - - - -
27/02:30am 20.4 SSE 5 9 1019.1 - 0.0 - - - - - - -
27/02:00am 21.9 SE 12 17 1019.3 - 0.0 - - - - - - -
27/01:30am 21.5 SE 8 17 1019.5 - 0.0 - - - - - - -
27/01:00am 21.8 SE 13 20 1019.8 - 0.0 - - - - - - -
27/12:30am 21.9 ESE 13 20 1019.8 - 0.0 - - - - - - -
27/12:00am 22.2 SE 13 19 1020.0 - 0.0 - - - - - - -
 
Date/Time
EST
Temp

°C
Wind Pressure Rain
since 9am
mm
Weather Cloud Vis
km
Sea
Height
m
Swell
Dir
 
Speed
knots
Gust
knots
hPa Trend Height
m
Period
s
Dir
26/11:30pm 22.0 SE 13 19 1020.3 - 0.0 - - - - - - -
26/11:00pm 22.1 SE 11 20 1020.4 - 0.0 - - - - - - -
26/10:30pm 22.3 ESE 12 19 1020.5 - 0.0 - - - - - - -
26/10:00pm 22.2 ESE 11 19 1020.5 - 0.0 - - - - - - -
26/09:30pm 22.4 ESE 10 17 1020.5 - 0.0 - - - - - - -
26/09:00pm 22.8 ESE 13 18 1020.5 - 0.0 - - - - - - -
26/08:30pm 22.8 ESE 10 17 1020.6 - 0.0 - - - - - - -
26/08:00pm 23.3 ESE 13 18 1020.5 - 0.0 - - - - - - -
26/07:30pm 23.5 ESE 13 18 1020.2 - 0.0 - - - - - - -
26/07:00pm 23.1 ESE 9 16 1020.2 - 0.0 - - - - - - -
26/06:30pm 23.2 ESE 13 19 1019.9 - 0.0 - - - - - - -
26/06:00pm 23.3 ESE 11 16 1019.6 - 0.0 - - - - - - -
26/05:30pm 23.5 ESE 13 19 1019.4 - 0.0 - - - - - - -
26/05:00pm 23.7 ESE 11 18 1019.1 - 0.0 - - - - - - -
26/04:30pm 24.6 ESE 11 17 1019.0 - 0.0 - - - - - - -
26/04:00pm 25.2 ESE 12 18 1019.0 - 0.0 - - - - - - -
26/03:30pm 24.5 ESE 14 19 1019.1 - 0.0 - - - - - - -
26/03:00pm 25.3 ESE 11 16 1019.3 - 0.0 - - - - - - -
26/02:30pm 25.2 ESE 11 16 1019.5 - 0.0 - - - - - - -
26/02:00pm 25.9 ESE 10 17 1019.8 - 0.0 - - - - - - -
26/01:30pm 26.1 ESE 9 14 1020.1 - 0.0 - - - - - - -
26/01:00pm 26.3 ESE 10 19 1020.7 - 0.0 - - - - - - -
26/12:30pm 26.1 ESE 11 17 1021.2 - 0.0 - - - - - - -
26/12:00pm 24.8 ESE 12 19 1021.7 - 0.0 - - - - - - -
26/11:30am 25.3 ESE 13 19 1022.1 - 0.0 - - - - - - -
26/11:00am 24.6 SE 11 17 1022.3 - 0.0 - - - - - - -
26/10:30am 24.4 SE 10 15 1022.8 - 0.0 - - - - - - -
26/10:00am 24.7 SE 8 13 1022.9 - 0.0 - - - - - - -
26/09:30am 23.9 SSE 6 11 1022.9 - 0.0 - - - - - - -
26/09:00am 23.4 SSE 6 9 1023.0 - 0.0 - - - - - - -
26/08:30am 21.7 S 6 10 1022.7 - 0.0 - - - - - - -
26/08:00am 20.5 S 6 9 1022.6 - 0.0 - - - - - - -
26/07:30am 19.3 S 6 9 1022.6 - 0.0 - - - - - - -
26/07:00am 18.7 S 5 9 1022.2 - 0.0 - - - - - - -
26/06:30am 18.8 S 5 7 1021.9 - 0.0 - - - - - - -
26/06:00am 18.8 SSE 4 7 1021.7 - 0.0 - - - - - - -
26/05:30am 18.7 S 6 9 1021.4 - 0.0 - - - - - - -
26/05:00am 18.5 S 6 10 1021.3 - 0.0 - - - - - - -
26/04:30am 18.7 S 5 8 1021.5 - 0.0 - - - - - - -
26/04:00am 19.3 S 5 9 1021.6 - 0.0 - - - - - - -
26/03:30am 20.0 S 5 8 1021.6 - 0.0 - - - - - - -
26/03:00am 20.8 SSE 5 10 1021.7 - 0.0 - - - - - - -
26/02:30am 21.9 SE 11 18 1021.7 - 0.0 - - - - - - -
26/02:00am 20.6 SSE 5 10 1021.8 - 0.0 - - - - - - -
26/01:30am 21.7 SE 8 14 1022.1 - 0.0 - - - - - - -
26/01:00am 21.7 SE 9 19 1022.2 - 0.0 - - - - - - -
26/12:30am 21.9 SE 12 18 1022.2 - 0.0 - - - - - - -
26/12:00am 22.0 SE 11 16 1022.3 - 0.0 - - - - - - -
 
Date/Time
EST
Temp

°C
Wind Pressure Rain
since 9am
mm
Weather Cloud Vis
km
Sea
Height
m
Swell
Dir
 
Speed
knots
Gust
knots
hPa Trend Height
m
Period
s
Dir
25/11:30pm 20.5 SSE 4 7 1022.5 - 0.0 - - - - - - -
25/11:00pm 20.9 SSE 5 10 1023.0 - 0.0 - - - - - - -
25/10:30pm 21.6 SSE 5 11 1023.0 - 0.0 - - - - - - -

Other Formats:

Comma delimited format used in spreadsheet applications
http://www.bom.gov.au/fwo/IDQ60701/IDQ60701.95296.axf

JavaScript Object Notation format (JSON) in row-major order
http://www.bom.gov.au/fwo/IDQ60701/IDQ60701.95296.json